Time;durP1;ratioP1;P1;durP2;ratioP2;P2;SDS_P1;SDS_P2;PMS_P1;PMS_P2;Temp;Humidity;BMP_temperature;BMP_pressure;BME280_temperature;BME280_humidity;BME280_pressure;Samples;Min_cycle;Max_cycle;Signal;HPM_P1;HPM_P2
2023/01/12 00:00:10;;;;;;;;;;;;;;;;;;2582694;23;20054;-94
2023/01/12 00:01:11;;;;;;;16.33;9.97;;;;;;;;;;2569379;23;19923;-94
2023/01/12 00:02:13;;;;;;;13.98;9.57;;;;;;;;;;2141961;23;10000673;-93
2023/01/12 00:03:13;;;;;;;13.88;9.55;;;;;;;;;;2581805;22;20405;-93
2023/01/12 00:04:14;;;;;;;;;;;;;;;;;;2598757;22;20027;-93
2023/01/12 00:05:14;;;;;;;13.77;8.93;;;;;;;;;;2582056;23;19914;-94
2023/01/12 00:06:15;;;;;;;14.27;9.27;;;;;;;;;;2581541;23;20043;-93
2023/01/12 00:07:16;;;;;;;14.32;9.13;;;;;;;;;;2581868;23;20019;-93
2023/01/12 00:08:17;;;;;;;14.68;9.68;;;;;;;;;;2569246;23;20035;-93
2023/01/12 00:09:17;;;;;;;;;;;;;;;;;;2582469;23;20429;-93
2023/01/12 00:11:28;;;;;;;14.95;9.27;;;;;;;;;;2568168;22;20020;-93
2023/01/12 00:12:29;;;;;;;;;;;;;;;;;;2595428;22;20329;-94
2023/01/12 00:13:30;;;;;;;16.03;10.17;;;;;;;;;;2582067;22;20355;-94
2023/01/12 00:14:32;;;;;;;15.38;9.93;;;;;;;;;;2581751;22;19988;-93
2023/01/12 00:16:52;;;;;;;13.23;9.82;;;;;;;;;;2598948;22;19996;-94
2023/01/12 00:17:55;;;;;;;;;;;;;;;;;;2608231;22;20530;-93
2023/01/12 00:18:55;;;;;;;15.30;9.80;;;;;;;;;;2594830;22;20399;-91
2023/01/12 00:19:55;;;;;;;;;;;;;;;;;;2594985;22;20090;-93
2023/01/12 00:20:56;;;;;;;13.97;9.50;;;;;;;;;;2582056;23;19937;-94
2023/01/12 00:22:07;;;;;;;14.73;10.80;;;;;;;;;;2582325;23;20097;-93
2023/01/12 00:23:10;;;;;;;;;;;;;;;;;;2595095;22;20349;-94
2023/01/12 00:24:12;;;;;;;15.30;10.35;;;;;;;;;;2582316;22;19923;-92
2023/01/12 00:25:12;;;;;;;14.93;10.70;;;;;;;;;;2582196;22;20111;-93
2023/01/12 00:26:12;;;;;;;;;;;;;;;;;;2582539;23;20053;-93
2023/01/12 00:27:16;;;;;;;14.60;9.97;;;;;;;;;;2582051;23;20348;-92
2023/01/12 00:28:16;;;;;;;15.48;10.40;;;;;;;;;;2598702;22;20405;-94
2023/01/12 00:29:17;;;;;;;;;;;;;;;;;;2594905;22;20177;-92
2023/01/12 00:30:32;;;;;;;15.25;9.65;;;;;;;;;;2342478;23;10002483;-93
2023/01/12 00:31:32;;;;;;;15.68;10.00;;;;;;;;;;2597673;22;20215;-93
2023/01/12 00:32:33;;;;;;;;;;;;;;;;;;2595328;22;20401;-93
2023/01/12 00:33:37;;;;;;;15.53;10.47;;;;;;;;;;2581937;23;19989;-93
2023/01/12 00:34:38;;;;;;;15.98;10.60;;;;;;;;;;2582972;22;20365;-92
2023/01/12 00:35:38;;;;;;;;;;;;;;;;;;2582221;23;20016;-93
2023/01/12 00:36:39;;;;;;;14.07;9.50;;;;;;;;;;2582064;23;19914;-94
2023/01/12 00:37:39;;;;;;;;;;;;;;;;;;2594993;22;19999;-94
2023/01/12 00:38:40;;;;;;;14.63;9.30;;;;;;;;;;2612008;22;19910;-92
2023/01/12 00:39:40;;;;;;;;;;;;;;;;;;2594906;22;20095;-94
2023/01/12 00:40:40;;;;;;;12.97;9.90;;;;;;;;;;2581562;22;20257;-92
2023/01/12 00:45:38;;;;;;;17.48;11.20;;;;;;;;;;2599458;22;20507;-91
2023/01/12 00:46:38;;;;;;;;;;;;;;;;;;2595149;22;20102;-93
2023/01/12 00:47:41;;;;;;;16.47;10.53;;;;;;;;;;2582252;23;19903;-96
2023/01/12 00:48:42;;;;;;;16.67;10.48;;;;;;;;;;2582586;22;19993;-94
2023/01/12 00:49:42;;;;;;;;;;;;;;;;;;2582880;22;19988;-95
2023/01/12 00:50:45;;;;;;;18.33;11.80;;;;;;;;;;2582114;23;19934;-92
2023/01/12 00:51:45;;;;;;;18.40;11.95;;;;;;;;;;2582202;22;20464;-92
2023/01/12 00:52:45;;;;;;;;;;;;;;;;;;2586623;23;20007;-93
2023/01/12 00:53:46;;;;;;;16.80;11.17;;;;;;;;;;2589096;23;19907;-94
2023/01/12 00:54:46;;;;;;;;;;;;;;;;;;2591263;23;20007;-94
2023/01/12 00:55:48;;;;;;;17.00;11.40;;;;;;;;;;2601513;22;19903;-93
2023/01/12 00:56:48;;;;;;;18.92;12.60;;;;;;;;;;2598959;22;20057;-92
2023/01/12 00:57:48;;;;;;;;;;;;;;;;;;2570008;23;20016;-94
2023/01/12 00:58:49;;;;;;;16.23;10.80;;;;;;;;;;2582241;23;20078;-94
2023/01/12 00:59:53;;;;;;;;;;;;;;;;;;2595956;22;20000;-95
2023/01/12 01:00:55;;;;;;;16.17;10.60;;;;;;;;;;2592102;22;20253;-94
2023/01/12 01:01:56;;;;;;;17.17;11.05;;;;;;;;;;2607468;22;19995;-95
2023/01/12 01:02:57;;;;;;;19.05;11.93;;;;;;;;;;2607372;22;19987;-95
2023/01/12 01:03:57;;;;;;;16.17;11.48;;;;;;;;;;1728315;22;10001797;-94
2023/01/12 01:04:58;;;;;;;21.17;12.55;;;;;;;;;;2581377;23;19988;-95
2023/01/12 01:11:45;;;;;;;16.48;11.15;;;;;;;;;;2575050;23;20493;-92
2023/01/12 01:12:45;;;;;;;;;;;;;;;;;;2594897;22;20015;-94
2023/01/12 01:13:47;;;;;;;19.07;11.50;;;;;;;;;;2583412;23;19930;-94
2023/01/12 01:14:48;;;;;;;17.17;11.55;;;;;;;;;;2596461;22;19992;-94
2023/01/12 01:15:48;;;;;;;;;;;;;;;;;;2596544;22;20439;-94
2023/01/12 01:16:49;;;;;;;15.50;10.60;;;;;;;;;;2583198;23;19911;-94
2023/01/12 01:17:49;;;;;;;;;;;;;;;;;;2583772;23;20006;-93
2023/01/12 01:18:50;;;;;;;19.63;11.57;;;;;;;;;;2583233;22;19914;-94
2023/01/12 01:19:50;;;;;;;;;;;;;;;;;;2595788;22;20003;-94
2023/01/12 01:20:51;;;;;;;17.83;12.13;;;;;;;;;;2591474;22;19934;-93
2023/01/12 01:21:51;;;;;;;16.00;11.60;;;;;;;;;;2593928;22;20030;-95
2023/01/12 01:22:51;;;;;;;;;;;;;;;;;;2594865;22;19992;-93
2023/01/12 01:23:52;;;;;;;18.50;12.40;;;;;;;;;;2594525;22;20038;-94
2023/01/12 01:24:53;;;;;;;16.10;12.15;;;;;;;;;;2594181;22;20034;-93
2023/01/12 01:25:54;;;;;;;;;;;;;;;;;;2604535;22;19991;-95
2023/01/12 01:26:54;;;;;;;18.80;12.40;;;;;;;;;;2597386;22;19962;-95
2023/01/12 01:27:55;;;;;;;20.42;12.05;;;;;;;;;;2596484;22;20053;-94
2023/01/12 01:28:55;;;;;;;;;;;;;;;;;;2597387;22;20034;-94
2023/01/12 01:29:56;;;;;;;16.50;11.23;;;;;;;;;;2583303;23;19911;-95
2023/01/12 01:31:12;;;;;;;18.20;11.80;;;;;;;;;;2583873;23;20057;-93
2023/01/12 01:32:12;;;;;;;17.13;11.77;;;;;;;;;;2587522;22;20076;-94
2023/01/12 01:33:13;;;;;;;;;;;;;;;;;;2596637;22;20014;-96
2023/01/12 01:34:14;;;;;;;20.00;11.20;;;;;;;;;;2595416;22;19903;-95
2023/01/12 01:35:14;;;;;;;;;;;;;;;;;;2583513;22;19991;-95
2023/01/12 01:36:15;;;;;;;19.17;12.03;;;;;;;;;;2583138;23;19910;-93
2023/01/12 01:37:15;;;;;;;;;;;;;;;;;;2583592;22;20075;-94
2023/01/12 01:38:16;;;;;;;18.93;12.03;;;;;;;;;;2145870;23;10147144;-94
2023/01/12 01:39:16;;;;;;;;;;;;;;;;;;2583486;23;20227;-94
2023/01/12 01:40:17;;;;;;;18.43;11.47;;;;;;;;;;2599863;22;19910;-95
2023/01/12 01:41:23;;;;;;;17.85;11.38;;;;;;;;;;2595161;22;20011;-94
2023/01/12 01:42:27;;;;;;;18.65;11.40;;;;;;;;;;2583998;22;20420;-95
2023/01/12 01:43:28;;;;;;;17.17;11.80;;;;;;;;;;2581278;22;20420;-90
2023/01/12 01:44:28;;;;;;;18.13;11.77;;;;;;;;;;2597734;22;20053;-89
2023/01/12 01:45:28;;;;;;;;;;;;;;;;;;2598601;22;20011;-90
2023/01/12 01:46:46;;;;;;;15.13;10.57;;;;;;;;;;2593489;22;19934;-90
2023/01/12 01:47:59;;;;;;;15.43;10.48;;;;;;;;;;2597898;22;20063;-91
2023/01/12 01:49:11;;;;;;;15.60;10.65;;;;;;;;;;2593453;22;20487;-90
2023/01/12 01:50:18;;;;;;;16.50;10.60;;;;;;;;;;2583388;22;20441;-88
2023/01/12 01:51:25;;;;;;;16.98;10.98;;;;;;;;;;2598579;22;20010;-90
2023/01/12 01:52:38;;;;;;;15.27;10.60;;;;;;;;;;2593751;22;20085;-90
2023/01/12 01:53:40;;;;;;;15.32;10.25;;;;;;;;;;2596052;22;20087;-89
2023/01/12 01:54:46;;;;;;;15.77;10.60;;;;;;;;;;2606302;22;19995;-89
2023/01/12 01:55:53;;;;;;;17.23;11.02;;;;;;;;;;2593550;22;20045;-90
2023/01/12 01:56:55;;;;;;;13.88;10.35;;;;;;;;;;2598026;22;20017;-89
2023/01/12 01:58:01;;;;;;;14.00;10.10;;;;;;;;;;2598857;22;20006;-89
2023/01/12 01:59:18;;;;;;;15.23;10.15;;;;;;;;;;2161449;22;10001280;-91
2023/01/12 02:00:19;;;;;;;15.63;10.75;;;;;;;;;;2583652;22;20000;-91
2023/01/12 02:01:20;;;;;;;;;;;;;;;;;;2581913;23;20417;-91
2023/01/12 02:02:22;;;;;;;13.90;10.30;;;;;;;;;;2581199;23;19997;-91
2023/01/12 02:03:24;;;;;;;14.25;10.00;;;;;;;;;;2597998;22;20003;-91
2023/01/12 02:04:25;;;;;;;15.13;10.50;;;;;;;;;;2593514;22;20002;-90
2023/01/12 02:05:27;;;;;;;;;;;;;;;;;;2581408;23;20003;-90
2023/01/12 02:06:28;;;;;;;15.43;10.85;;;;;;;;;;2593646;22;19998;-90
2023/01/12 02:10:58;;;;;;;14.45;9.75;;;;;;;;;;2577865;22;20027;-91
2023/01/12 02:16:22;;;;;;;12.85;9.27;;;;;;;;;;2599149;22;19999;-90
2023/01/12 02:17:33;;;;;;;17.55;10.57;;;;;;;;;;2598842;22;20001;-90
2023/01/12 02:18:44;;;;;;;15.57;9.75;;;;;;;;;;2598898;22;19994;-89
2023/01/12 02:20:09;;;;;;;14.05;9.88;;;;;;;;;;2599049;22;20045;-90
2023/01/12 02:21:42;;;;;;;13.70;9.35;;;;;;;;;;2593643;22;19995;-89
2023/01/12 02:22:42;;;;;;;11.82;9.02;;;;;;;;;;2593506;22;19996;-90
2023/01/12 02:24:03;;;;;;;;;;;;;;;;;;2594483;22;20044;-90
2023/01/12 02:25:41;;;;;;;14.63;9.75;;;;;;;;;;2574457;22;20221;-89
2023/01/12 02:26:44;;;;;;;13.57;8.95;;;;;;;;;;2598995;22;20337;-91
2023/01/12 02:27:56;;;;;;;14.45;9.77;;;;;;;;;;2593771;22;19996;-90
2023/01/12 02:29:30;;;;;;;14.88;9.63;;;;;;;;;;2583442;22;20082;-91
2023/01/12 02:30:45;;;;;;;14.27;9.45;;;;;;;;;;2600239;22;20028;-91
2023/01/12 02:31:55;;;;;;;15.23;10.50;;;;;;;;;;2597979;22;20026;-91
2023/01/12 02:33:28;;;;;;;15.90;10.35;;;;;;;;;;2598388;22;20079;-91
2023/01/12 02:36:53;;;;;;;12.55;9.68;;;;;;;;;;2598739;22;20003;-90
2023/01/12 02:38:06;;;;;;;14.48;9.60;;;;;;;;;;2598654;22;19992;-90
2023/01/12 02:39:28;;;;;;;16.23;10.35;;;;;;;;;;2593453;22;20035;-90
2023/01/12 02:40:37;;;;;;;13.48;9.50;;;;;;;;;;2599047;22;20066;-91
2023/01/12 02:43:29;;;;;;;16.33;10.05;;;;;;;;;;2603477;22;19996;-93
2023/01/12 02:44:40;;;;;;;17.52;10.85;;;;;;;;;;2612383;22;20010;-91
2023/01/12 02:45:53;;;;;;;17.27;11.13;;;;;;;;;;2619139;22;19987;-90
2023/01/12 02:46:57;;;;;;;18.23;11.38;;;;;;;;;;2607473;22;20077;-91
2023/01/12 02:48:00;;;;;;;18.40;12.32;;;;;;;;;;2593670;22;20010;-91
2023/01/12 02:49:06;;;;;;;18.17;11.20;;;;;;;;;;2597650;22;20005;-91
2023/01/12 02:50:11;;;;;;;15.65;11.05;;;;;;;;;;2598793;22;20432;-91
2023/01/12 02:51:28;;;;;;;17.63;11.05;;;;;;;;;;2599535;22;20019;-90
2023/01/12 02:52:32;;;;;;;16.95;11.25;;;;;;;;;;2606170;22;20026;-91
2023/01/12 02:53:42;;;;;;;16.67;10.57;;;;;;;;;;2609693;22;19987;-91
2023/01/12 02:54:46;;;;;;;15.35;10.75;;;;;;;;;;2593362;22;20054;-92
2023/01/12 02:55:48;;;;;;;14.85;10.48;;;;;;;;;;2593374;22;20041;-91
2023/01/12 02:56:52;;;;;;;15.75;10.80;;;;;;;;;;2597584;22;19995;-91
2023/01/12 02:57:55;;;;;;;15.07;11.35;;;;;;;;;;2593469;22;19992;-91
2023/01/12 02:59:00;;;;;;;15.45;10.73;;;;;;;;;;2581051;22;20006;-90
2023/01/12 03:00:03;;;;;;;16.27;11.40;;;;;;;;;;2581574;22;20060;-91
2023/01/12 03:01:06;;;;;;;17.58;11.57;;;;;;;;;;2593771;22;20006;-91
2023/01/12 03:02:09;;;;;;;19.08;12.15;;;;;;;;;;2593764;22;20003;-91
2023/01/12 03:03:10;;;;;;;16.88;11.18;;;;;;;;;;2593528;22;20364;-91
2023/01/12 03:04:12;;;;;;;19.58;12.27;;;;;;;;;;2606027;22;20010;-91
2023/01/12 03:05:13;;;;;;;16.55;11.55;;;;;;;;;;2597668;22;20353;-91
2023/01/12 03:06:16;;;;;;;;;;;;;;;;;;2599122;22;20169;-89
2023/01/12 03:07:42;;;;;;;18.48;11.30;;;;;;;;;;2593161;22;19960;-90
2023/01/12 03:08:44;;;;;;;17.83;11.23;;;;;;;;;;2586092;22;20003;-88
2023/01/12 03:09:49;;;;;;;17.42;12.15;;;;;;;;;;2580486;22;20077;-91
2023/01/12 03:11:00;;;;;;;18.75;11.68;;;;;;;;;;2581511;22;20000;-89
2023/01/12 03:12:07;;;;;;;15.55;11.15;;;;;;;;;;2597706;22;20363;-89
2023/01/12 03:13:12;;;;;;;15.73;11.60;;;;;;;;;;2593107;22;20109;-90
2023/01/12 03:14:15;;;;;;;18.00;11.73;;;;;;;;;;2597836;22;20030;-87
2023/01/12 03:15:18;;;;;;;16.98;12.07;;;;;;;;;;2605915;22;20022;-88
2023/01/12 03:16:23;;;;;;;20.88;13.25;;;;;;;;;;2593301;22;20000;-90
2023/01/12 03:17:42;;;;;;;18.88;12.50;;;;;;;;;;2581336;22;20070;-88
2023/01/12 03:19:03;;;;;;;17.83;12.05;;;;;;;;;;2597517;22;19991;-89
2023/01/12 03:20:27;;;;;;;17.85;11.60;;;;;;;;;;2592752;22;19992;-88
2023/01/12 03:21:30;;;;;;;17.27;12.55;;;;;;;;;;2597495;22;20456;-90
2023/01/12 03:22:33;;;;;;;19.95;12.18;;;;;;;;;;2592469;22;20052;-89
2023/01/12 03:23:43;;;;;;;16.80;10.95;;;;;;;;;;2581124;22;20395;-90
2023/01/12 03:24:52;;;;;;;18.33;12.23;;;;;;;;;;2595488;22;20436;-88
2023/01/12 03:25:57;;;;;;;18.40;11.88;;;;;;;;;;2156984;22;10082944;-89
2023/01/12 03:27:07;;;;;;;17.27;12.15;;;;;;;;;;2597565;22;20196;-90
2023/01/12 03:28:09;;;;;;;18.67;12.75;;;;;;;;;;2593105;22;20597;-90
2023/01/12 03:29:28;;;;;;;18.35;12.30;;;;;;;;;;2593490;22;20326;-92
2023/01/12 03:30:35;;;;;;;19.80;12.40;;;;;;;;;;2588432;22;20467;-90
2023/01/12 03:31:36;;;;;;;18.23;11.77;;;;;;;;;;2581859;22;19998;-90
2023/01/12 03:32:37;;;;;;;;;;;;;;;;;;2597822;22;20449;-91
2023/01/12 03:33:39;;;;;;;18.53;12.00;;;;;;;;;;2593634;22;19903;-89
2023/01/12 03:34:47;;;;;;;20.88;11.48;;;;;;;;;;2580692;22;20075;-91
2023/01/12 03:36:03;;;;;;;17.75;11.70;;;;;;;;;;2597577;22;19996;-92
2023/01/12 03:38:03;;;;;;;17.52;11.98;;;;;;;;;;2427696;22;10001583;-89
2023/01/12 03:39:36;;;;;;;19.42;12.20;;;;;;;;;;2556485;22;20202;-91
2023/01/12 03:40:42;;;;;;;17.65;11.75;;;;;;;;;;2571731;22;19991;-90
2023/01/12 03:41:57;;;;;;;17.80;11.52;;;;;;;;;;2605553;22;20004;-90
2023/01/12 03:43:07;;;;;;;18.00;12.27;;;;;;;;;;2618914;22;19995;-90
2023/01/12 03:44:16;;;;;;;14.98;11.60;;;;;;;;;;2609915;22;20030;-89
2023/01/12 03:45:57;;;;;;;17.40;11.70;;;;;;;;;;2605327;22;20029;-89
2023/01/12 03:47:02;;;;;;;16.75;11.50;;;;;;;;;;2590709;22;20006;-87
2023/01/12 03:48:12;;;;;;;17.13;12.10;;;;;;;;;;2595054;22;19996;-88
2023/01/12 03:49:33;;;;;;;16.60;11.27;;;;;;;;;;2583897;22;20094;-87
2023/01/12 03:50:41;;;;;;;20.85;12.50;;;;;;;;;;2586026;22;19992;-88
2023/01/12 03:51:46;;;;;;;20.20;12.43;;;;;;;;;;2583212;22;20071;-88
2023/01/12 03:52:48;;;;;;;16.98;12.00;;;;;;;;;;2594221;22;20102;-89
2023/01/12 03:53:51;;;;;;;20.92;12.60;;;;;;;;;;2581361;22;20079;-89
2023/01/12 03:54:55;;;;;;;19.77;12.10;;;;;;;;;;2581111;22;20004;-90
2023/01/12 03:56:00;;;;;;;20.35;12.35;;;;;;;;;;2581237;22;20083;-90
2023/01/12 03:57:02;;;;;;;17.25;12.00;;;;;;;;;;2581521;22;20168;-89
2023/01/12 03:58:03;;;;;;;20.38;12.25;;;;;;;;;;2593573;22;20456;-89
2023/01/12 03:59:04;;;;;;;18.30;12.10;;;;;;;;;;2605915;22;19999;-89
2023/01/12 04:00:06;;;;;;;;;;;;;;;;;;2593790;22;20419;-87
2023/01/12 04:01:07;;;;;;;17.50;11.98;;;;;;;;;;2590696;22;19943;-90
2023/01/12 04:02:08;;;;;;;;;;;;;;;;;;2605863;22;20010;-90
2023/01/12 04:03:11;;;;;;;18.73;11.60;;;;;;;;;;2622560;22;19903;-89
2023/01/12 04:04:11;;;;;;;19.08;12.52;;;;;;;;;;2618291;22;19999;-89
2023/01/12 04:05:13;;;;;;;;;;;;;;;;;;2605914;22;20023;-89
2023/01/12 04:06:13;;;;;;;17.60;12.13;;;;;;;;;;2599809;22;19985;-90
2023/01/12 04:07:13;;;;;;;;;;;;;;;;;;2607658;22;20006;-90
2023/01/12 04:08:15;;;;;;;19.90;12.77;;;;;;;;;;2581731;23;19903;-89
2023/01/12 04:09:16;;;;;;;20.25;12.98;;;;;;;;;;2581000;22;20066;-89
2023/01/12 04:10:16;;;;;;;;;;;;;;;;;;2593843;22;20113;-88
2023/01/12 04:12:36;;;;;;;19.20;13.20;;;;;;;;;;2606958;22;20007;-89
2023/01/12 04:13:36;;;;;;;;;;;;;;;;;;2598784;22;19995;-89
2023/01/12 04:14:45;;;;;;;20.45;13.43;;;;;;;;;;2593188;22;19943;-89
2023/01/12 04:15:46;;;;;;;18.98;12.70;;;;;;;;;;2582327;22;20011;-89
2023/01/12 04:16:46;;;;;;;21.50;12.68;;;;;;;;;;2597392;22;20078;-89
2023/01/12 04:17:47;;;;;;;;;;;;;;;;;;2598795;22;20463;-90
2023/01/12 04:18:47;;;;;;;18.02;11.27;;;;;;;;;;2598297;22;19930;-90
2023/01/12 04:19:48;;;;;;;;;;;;;;;;;;2606251;22;20468;-87
2023/01/12 04:20:48;;;;;;;18.40;12.20;;;;;;;;;;2593159;22;20044;-89
2023/01/12 04:23:08;;;;;;;19.45;12.93;;;;;;;;;;2597312;22;19908;-90
2023/01/12 04:24:08;;;;;;;;;;;;;;;;;;2598460;22;20336;-91
2023/01/12 04:25:20;;;;;;;21.20;13.43;;;;;;;;;;2592857;22;19910;-90
2023/01/12 04:26:21;;;;;;;22.23;13.48;;;;;;;;;;2597154;22;20051;-90
2023/01/12 04:27:21;;;;;;;;;;;;;;;;;;2593100;22;20007;-90
2023/01/12 04:28:21;;;;;;;19.47;12.63;;;;;;;;;;2597194;22;19909;-90
2023/01/12 04:29:22;;;;;;;21.08;13.27;;;;;;;;;;2598157;22;20435;-90
2023/01/12 04:30:25;;;;;;;;;;;;;;;;;;2593311;22;20007;-90
2023/01/12 04:31:26;;;;;;;20.17;13.15;;;;;;;;;;2580794;22;19907;-90
2023/01/12 04:32:26;;;;;;;;;;;;;;;;;;2593694;22;20003;-90
2023/01/12 04:33:27;;;;;;;18.57;12.60;;;;;;;;;;2610433;22;20296;-89
2023/01/12 04:34:27;;;;;;;;;;;;;;;;;;2600659;22;19995;-89
2023/01/12 04:35:27;;;;;;;19.47;12.47;;;;;;;;;;2597025;22;19946;-90
2023/01/12 04:36:28;;;;;;;;;;;;;;;;;;2587852;23;20075;-91
2023/01/12 04:37:33;;;;;;;17.73;12.40;;;;;;;;;;2583827;23;19903;-90
2023/01/12 04:38:33;;;;;;;18.55;12.07;;;;;;;;;;2598427;22;20041;-91
2023/01/12 04:39:33;;;;;;;;;;;;;;;;;;2599532;22;20238;-90
2023/01/12 04:40:34;;;;;;;17.75;11.30;;;;;;;;;;2599380;22;20304;-90
2023/01/12 04:41:34;;;;;;;;;;;;;;;;;;2599612;22;20045;-90
2023/01/12 04:43:55;;;;;;;18.35;11.95;;;;;;;;;;2598161;22;20007;-90
2023/01/12 04:44:55;;;;;;;;;;;;;;;;;;2599439;22;19992;-89
2023/01/12 04:45:55;;;;;;;18.37;12.00;;;;;;;;;;2593527;22;19914;-89
2023/01/12 04:46:56;;;;;;;20.75;13.07;;;;;;;;;;1265139;23;10001036;-90
2023/01/12 04:48:01;;;;;;;;;;;;;;;;;;2598460;22;19996;-89
2023/01/12 04:49:02;;;;;;;17.67;11.82;;;;;;;;;;2593599;22;19903;-90
2023/01/12 04:50:03;;;;;;;;;;;;;;;;;;2598286;22;20085;-90
2023/01/12 04:51:06;;;;;;;20.93;13.83;;;;;;;;;;2598955;22;19907;-90
2023/01/12 04:52:06;;;;;;;19.65;12.82;;;;;;;;;;2593435;22;20300;-90
2023/01/12 04:53:08;;;;;;;;;;;;;;;;;;2581338;23;20411;-90
2023/01/12 04:54:09;;;;;;;20.35;12.13;;;;;;;;;;2581223;22;20372;-90
2023/01/12 04:55:09;;;;;;;18.58;11.13;;;;;;;;;;2581043;22;20025;-90
2023/01/12 04:56:10;;;;;;;20.02;11.27;;;;;;;;;;2159688;22;10001538;-89
2023/01/12 04:57:10;;;;;;;;;;;;;;;;;;2595184;22;20023;-89
2023/01/12 04:58:10;;;;;;;16.48;12.07;;;;;;;;;;2586234;22;19968;-89
2023/01/12 04:59:11;;;;;;;18.50;11.82;;;;;;;;;;2580937;23;20576;-89
2023/01/12 05:00:11;;;;;;;;;;;;;;;;;;2598534;22;20026;-89
2023/01/12 05:01:15;;;;;;;15.95;11.43;;;;;;;;;;2606100;22;19909;-89
2023/01/12 05:02:16;;;;;;;18.40;12.13;;;;;;;;;;2593595;22;20382;-89
2023/01/12 05:03:16;;;;;;;;;;;;;;;;;;2581212;23;20000;-88
2023/01/12 05:04:16;;;;;;;20.45;12.63;;;;;;;;;;2593426;22;19903;-90
2023/01/12 05:05:17;;;;;;;;;;;;;;;;;;2581186;23;20395;-89
2023/01/12 05:06:17;;;;;;;16.45;11.88;;;;;;;;;;2597775;22;20320;-91
2023/01/12 05:07:17;;;;;;;;;;;;;;;;;;2594199;22;20113;-88
2023/01/12 05:11:00;;;;;;;18.60;11.20;;;;;;;;;;2594598;22;19995;-90
2023/01/12 05:12:00;;;;;;;15.20;10.45;;;;;;;;;;2599023;22;19996;-90
2023/01/12 05:13:00;;;;;;;;;;;;;;;;;;2594419;22;20341;-91
2023/01/12 05:14:01;;;;;;;16.83;11.27;;;;;;;;;;2580936;23;19903;-91
2023/01/12 05:15:02;;;;;;;;;;;;;;;;;;2594160;22;20007;-90
2023/01/12 05:16:14;;;;;;;13.90;9.95;;;;;;;;;;2594035;22;19907;-88
2023/01/12 05:17:15;;;;;;;15.48;10.38;;;;;;;;;;2598158;22;19999;-89
2023/01/12 05:18:16;;;;;;;16.52;10.75;;;;;;;;;;2598820;22;19995;-89
2023/01/12 05:19:16;;;;;;;;;;;;;;;;;;2599146;22;20074;-90
2023/01/12 05:20:18;;;;;;;15.27;9.87;;;;;;;;;;2593658;22;20170;-90
2023/01/12 05:21:21;;;;;;;13.80;10.05;;;;;;;;;;2580899;22;20079;-90
2023/01/12 05:22:22;;;;;;;19.30;11.98;;;;;;;;;;2598017;22;20075;-90
2023/01/12 05:23:22;;;;;;;;;;;;;;;;;;2599271;22;20683;-90
2023/01/12 05:24:22;;;;;;;13.30;9.73;;;;;;;;;;2593491;22;19986;-90
2023/01/12 05:25:23;;;;;;;12.27;9.23;;;;;;;;;;2598001;22;20000;-90
2023/01/12 05:26:23;;;;;;;;;;;;;;;;;;2594235;22;20003;-88
2023/01/12 05:27:24;;;;;;;13.97;9.30;;;;;;;;;;2593658;22;19907;-89
2023/01/12 05:28:24;;;;;;;;;;;;;;;;;;2598365;22;20022;-90
2023/01/12 05:29:24;;;;;;;13.20;8.77;;;;;;;;;;2593552;22;19903;-88
2023/01/12 05:30:25;;;;;;;;;;;;;;;;;;2594052;22;20006;-88
2023/01/12 05:31:26;;;;;;;16.33;9.47;;;;;;;;;;2597984;22;19904;-90
2023/01/12 05:32:26;;;;;;;;;;;;;;;;;;2594425;22;20179;-89
2023/01/12 05:33:26;;;;;;;13.07;8.87;;;;;;;;;;2597790;22;19968;-89
2023/01/12 05:34:27;;;;;;;;;;;;;;;;;;2599101;22;20047;-88
2023/01/12 05:35:27;;;;;;;13.43;9.27;;;;;;;;;;2593277;22;19946;-89
2023/01/12 05:36:27;;;;;;;14.23;9.50;;;;;;;;;;2580511;23;20015;-89
2023/01/12 05:37:28;;;;;;;;;;;;;;;;;;2581108;23;20345;-90
2023/01/12 05:38:28;;;;;;;14.73;9.82;;;;;;;;;;2593238;22;20371;-89
2023/01/12 05:39:28;;;;;;;;;;;;;;;;;;2594058;22;19995;-89
2023/01/12 05:40:29;;;;;;;13.73;9.90;;;;;;;;;;2580933;23;20407;-90
2023/01/12 05:41:29;;;;;;;;;;;;;;;;;;2581251;23;20486;-89
2023/01/12 05:43:49;;;;;;;12.45;8.13;;;;;;;;;;2598681;22;19999;-89
2023/01/12 05:44:49;;;;;;;;;;;;;;;;;;2598926;22;19999;-90
2023/01/12 05:46:03;;;;;;;16.24;9.89;;;;;;;;;;2553636;22;10000715;-89
2023/01/12 05:47:04;;;;;;;14.32;8.80;;;;;;;;;;2598895;22;20204;-89
2023/01/12 05:48:04;;;;;;;;;;;;;;;;;;2593884;22;20002;-89
2023/01/12 05:49:05;;;;;;;13.93;9.15;;;;;;;;;;2581305;23;19990;-90
2023/01/12 05:50:06;;;;;;;15.65;9.55;;;;;;;;;;2597873;22;19995;-88
2023/01/12 05:51:08;;;;;;;13.23;8.70;;;;;;;;;;2598960;22;20015;-88
2023/01/12 05:52:08;;;;;;;18.40;10.20;;;;;;;;;;2606116;22;20006;-88
2023/01/12 05:53:09;;;;;;;;;;;;;;;;;;2593734;22;20424;-89
2023/01/12 05:54:09;;;;;;;14.30;9.13;;;;;;;;;;2593640;22;20057;-89
2023/01/12 05:55:10;;;;;;;14.70;8.25;;;;;;;;;;2593455;22;20023;-89
2023/01/12 05:56:15;;;;;;;;;;;;;;;;;;2598591;22;20073;-88
2023/01/12 05:57:15;;;;;;;14.20;9.32;;;;;;;;;;2598725;22;20346;-89
2023/01/12 05:58:15;;;;;;;;;;;;;;;;;;2599183;22;20003;-89
2023/01/12 05:59:16;;;;;;;14.25;9.13;;;;;;;;;;2593532;22;19938;-88
2023/01/12 06:00:16;;;;;;;;;;;;;;;;;;2581091;22;20337;-89
2023/01/12 06:01:17;;;;;;;13.57;8.73;;;;;;;;;;2593348;22;19926;-87
2023/01/12 06:02:20;;;;;;;13.65;9.00;;;;;;;;;;2597999;22;20487;-87
2023/01/12 06:03:20;;;;;;;16.30;8.93;;;;;;;;;;2593232;22;20000;-88
2023/01/12 06:04:21;;;;;;;;;;;;;;;;;;2598247;22;19996;-87
2023/01/12 06:05:21;;;;;;;11.80;8.25;;;;;;;;;;2593388;22;20337;-87
2023/01/12 06:06:24;;;;;;;12.30;8.50;;;;;;;;;;2597664;22;20444;-88
2023/01/12 06:07:25;;;;;;;14.98;9.25;;;;;;;;;;2593206;22;20014;-89
2023/01/12 06:08:25;;;;;;;;;;;;;;;;;;2580856;23;19999;-89
2023/01/12 06:09:25;;;;;;;11.80;8.57;;;;;;;;;;2597605;22;20342;-89
2023/01/12 06:10:26;;;;;;;11.85;8.75;;;;;;;;;;2593106;22;20022;-89
2023/01/12 06:14:09;;;;;;;12.07;8.32;;;;;;;;;;2598803;22;20027;-89
2023/01/12 06:15:09;;;;;;;13.60;8.68;;;;;;;;;;2593146;22;20057;-90
2023/01/12 06:16:09;;;;;;;;;;;;;;;;;;2581158;23;20495;-89
2023/01/12 06:17:38;;;;;;;14.33;8.60;;;;;;;;;;2597367;22;19927;-91
2023/01/12 06:18:44;;;;;;;13.18;9.15;;;;;;;;;;2598011;22;20407;-89
2023/01/12 06:19:45;;;;;;;12.93;9.68;;;;;;;;;;2592289;22;19991;-89
2023/01/12 06:20:45;;;;;;;;;;;;;;;;;;2598225;22;20011;-87
2023/01/12 06:21:54;;;;;;;12.40;8.40;;;;;;;;;;2602509;22;20117;-92
2023/01/12 06:23:37;;;;;;;12.82;9.20;;;;;;;;;;2594688;22;20008;-90
2023/01/12 06:24:40;;;;;;;11.05;7.85;;;;;;;;;;2602268;22;20747;-90
2023/01/12 06:25:40;;;;;;;11.98;8.02;;;;;;;;;;2609497;22;19995;-91
2023/01/12 06:26:43;;;;;;;;;;;;;;;;;;2605420;22;20007;-90
2023/01/12 06:27:44;;;;;;;14.98;8.70;;;;;;;;;;2606060;22;19903;-89
2023/01/12 06:28:44;;;;;;;;;;;;;;;;;;2601771;22;20003;-90
2023/01/12 06:29:45;;;;;;;13.57;9.15;;;;;;;;;;2595644;22;20498;-89
2023/01/12 06:31:04;;;;;;;14.07;8.45;;;;;;;;;;2580438;23;20460;-89
2023/01/12 06:32:04;;;;;;;12.90;8.20;;;;;;;;;;2588496;22;20413;-89
2023/01/12 06:33:04;;;;;;;;;;;;;;;;;;2598190;22;20026;-88
2023/01/12 06:34:06;;;;;;;11.50;7.63;;;;;;;;;;2593216;22;19903;-89
2023/01/12 06:35:10;;;;;;;10.35;8.13;;;;;;;;;;2580911;22;20306;-88
2023/01/12 06:36:10;;;;;;;16.17;8.48;;;;;;;;;;2593009;22;20019;-88
2023/01/12 06:37:11;;;;;;;;;;;;;;;;;;2598054;22;20003;-90
2023/01/12 06:38:12;;;;;;;11.48;7.30;;;;;;;;;;2592752;22;19903;-88
2023/01/12 06:39:15;;;;;;;12.80;8.32;;;;;;;;;;2597151;22;19991;-89
2023/01/12 06:40:15;;;;;;;13.50;8.32;;;;;;;;;;2598214;22;20010;-88
2023/01/12 06:42:40;;;;;;;13.57;8.25;;;;;;;;;;2610110;22;19911;-88
2023/01/12 06:43:41;;;;;;;15.40;8.68;;;;;;;;;;2609757;22;19998;-90
2023/01/12 06:44:46;;;;;;;;;;;;;;;;;;2593566;22;20007;-89
2023/01/12 06:45:46;;;;;;;16.00;9.57;;;;;;;;;;2610192;22;19899;-89
2023/01/12 06:46:47;;;;;;;;;;;;;;;;;;2609148;22;20075;-88
2023/01/12 06:47:50;;;;;;;14.48;9.02;;;;;;;;;;2593225;22;20259;-88
2023/01/12 06:48:53;;;;;;;11.88;7.82;;;;;;;;;;2598721;22;19992;-90
2023/01/12 06:49:54;;;;;;;12.32;7.85;;;;;;;;;;2599427;22;19992;-88
2023/01/12 06:51:00;;;;;;;;;;;;;;;;;;2595174;22;20125;-89
2023/01/12 06:52:00;;;;;;;11.18;8.00;;;;;;;;;;2582443;22;19926;-90
2023/01/12 06:53:02;;;;;;;;;;;;;;;;;;2598106;22;20027;-90
2023/01/12 06:54:02;;;;;;;13.93;8.52;;;;;;;;;;2598448;22;19914;-91
2023/01/12 06:55:03;;;;;;;;;;;;;;;;;;2593193;22;20603;-91
2023/01/12 06:56:03;;;;;;;16.00;8.90;;;;;;;;;;2597165;22;20314;-89
2023/01/12 06:57:04;;;;;;;15.18;9.30;;;;;;;;;;2592710;22;20003;-91
2023/01/12 06:58:04;;;;;;;;;;;;;;;;;;2597961;22;20481;-91
2023/01/12 06:59:05;;;;;;;14.18;9.60;;;;;;;;;;2598131;22;19937;-91
2023/01/12 07:00:05;;;;;;;;;;;;;;;;;;2593387;22;19996;-88
2023/01/12 07:01:06;;;;;;;11.80;8.70;;;;;;;;;;2149497;23;10001798;-89
2023/01/12 07:02:14;;;;;;;14.30;9.43;;;;;;;;;;2149370;23;10001802;-91
2023/01/12 07:03:19;;;;;;;13.05;8.15;;;;;;;;;;2583952;22;19996;-89